Time;durP1;ratioP1;P1;durP2;ratioP2;P2;SDS_P1;SDS_P2;PMS_P1;PMS_P2;Temp;Humidity;BMP_temperature;BMP_pressure;BME280_temperature;BME280_humidity;BME280_pressure;Samples;Min_cycle;Max_cycle;Signal;HPM_P1;HPM_P2
2023/01/02 00:01:12;;;;;;;9.95;2.92;;;;;;;;;;4975850;28;20805;-70
2023/01/02 00:03:38;;;;;;;9.15;2.13;;;;;;;;;;4973922;28;20433;-70
2023/01/02 00:06:04;;;;;;;12.30;3.20;;;;;;;;;;4972530;28;20025;-69
2023/01/02 00:08:29;;;;;;;9.80;2.10;;;;;;;;;;4971902;28;20090;-71
2023/01/02 00:10:54;;;;;;;6.45;2.03;;;;;;;;;;4972806;28;20027;-70
2023/01/02 00:13:19;;;;;;;2.93;1.40;;;;;;;;;;4968945;28;20042;-70
2023/01/02 00:15:44;;;;;;;10.30;3.10;;;;;;;;;;4971310;28;20444;-70
2023/01/02 00:18:10;;;;;;;8.32;2.47;;;;;;;;;;4974188;28;20085;-70
2023/01/02 00:20:35;;;;;;;6.13;2.17;;;;;;;;;;4972109;28;20476;-70
2023/01/02 00:23:00;;;;;;;11.25;1.63;;;;;;;;;;4972143;28;20124;-70
2023/01/02 00:25:26;;;;;;;15.20;3.00;;;;;;;;;;4953994;28;20502;-70
2023/01/02 00:27:51;;;;;;;12.20;1.60;;;;;;;;;;4968928;28;20509;-70
2023/01/02 00:30:16;;;;;;;7.03;1.90;;;;;;;;;;4972454;28;20269;-69
2023/01/02 00:32:41;;;;;;;13.98;1.52;;;;;;;;;;4967855;28;20273;-69
2023/01/02 00:35:07;;;;;;;14.73;2.13;;;;;;;;;;4968042;28;20022;-70
2023/01/02 00:37:32;;;;;;;13.93;2.20;;;;;;;;;;4969253;28;20027;-70
2023/01/02 00:39:57;;;;;;;11.57;2.60;;;;;;;;;;4973610;28;20018;-71
2023/01/02 00:42:22;;;;;;;12.60;3.20;;;;;;;;;;4969739;28;20026;-70
2023/01/02 00:44:48;;;;;;;14.57;3.00;;;;;;;;;;4966230;28;20148;-70
2023/01/02 00:47:13;;;;;;;9.43;1.47;;;;;;;;;;4967288;28;20278;-71
2023/01/02 00:49:38;;;;;;;10.90;3.17;;;;;;;;;;4970352;28;20278;-71
2023/01/02 00:52:03;;;;;;;8.53;2.20;;;;;;;;;;5000485;23;20125;-70
2023/01/02 00:54:28;;;;;;;10.57;2.23;;;;;;;;;;4994897;28;20272;-70
2023/01/02 00:56:54;;;;;;;8.35;1.30;;;;;;;;;;4995306;28;20291;-70
2023/01/02 00:59:19;;;;;;;6.60;1.73;;;;;;;;;;4991939;28;20015;-70
2023/01/02 01:01:44;;;;;;;11.73;2.13;;;;;;;;;;4991086;28;20030;-69
2023/01/02 01:04:09;;;;;;;13.40;3.17;;;;;;;;;;4991444;28;20276;-69
2023/01/02 01:06:35;;;;;;;5.50;2.75;;;;;;;;;;4983217;28;20026;-69
2023/01/02 01:09:00;;;;;;;4.50;1.98;;;;;;;;;;4990273;28;20037;-70
2023/01/02 01:11:25;;;;;;;5.93;1.98;;;;;;;;;;4982403;28;20019;-67
2023/01/02 01:13:50;;;;;;;10.55;1.70;;;;;;;;;;4989429;28;20019;-68
2023/01/02 01:16:17;;;;;;;5.80;1.63;;;;;;;;;;4987246;28;20022;-68
2023/01/02 01:18:42;;;;;;;4.55;1.52;;;;;;;;;;4977500;28;20164;-68
2023/01/02 01:21:12;;;;;;;19.08;3.22;;;;;;;;;;4988690;28;20102;-67
2023/01/02 01:23:37;;;;;;;4.80;1.38;;;;;;;;;;4989404;28;20019;-68
2023/01/02 01:26:12;;;;;;;9.15;1.65;;;;;;;;;;4990946;28;20090;-67
2023/01/02 01:28:37;;;;;;;9.52;2.35;;;;;;;;;;4984094;28;20046;-67
2023/01/02 01:31:04;;;;;;;6.53;1.70;;;;;;;;;;4991039;28;20163;-67
2023/01/02 01:33:30;;;;;;;15.40;2.50;;;;;;;;;;4991570;28;20097;-67
2023/01/02 01:35:58;;;;;;;12.48;2.72;;;;;;;;;;4987396;28;20046;-67
2023/01/02 01:38:24;;;;;;;7.20;2.10;;;;;;;;;;4989993;28;20531;-67
2023/01/02 01:40:49;;;;;;;7.88;1.80;;;;;;;;;;4989405;28;20018;-68
2023/01/02 01:43:14;;;;;;;6.53;2.37;;;;;;;;;;4984820;28;20030;-68
2023/01/02 01:45:43;;;;;;;4.90;1.50;;;;;;;;;;4985104;28;20321;-68
2023/01/02 01:48:11;;;;;;;6.15;1.50;;;;;;;;;;4988732;28;20650;-68
2023/01/02 01:50:36;;;;;;;5.28;1.17;;;;;;;;;;4987202;28;20455;-68
2023/01/02 01:53:10;;;;;;;15.17;1.77;;;;;;;;;;4978707;28;20034;-68
2023/01/02 01:55:37;;;;;;;16.73;2.15;;;;;;;;;;4987590;28;20311;-68
2023/01/02 01:58:10;;;;;;;9.40;2.15;;;;;;;;;;4995431;28;20022;-68
2023/01/02 02:00:35;;;;;;;14.15;1.75;;;;;;;;;;4989218;28;20074;-68
2023/01/02 02:03:06;;;;;;;16.08;2.38;;;;;;;;;;4982705;28;20039;-68
2023/01/02 02:05:31;;;;;;;;;;;;;;;;;;4988654;28;20471;-68
2023/01/02 02:08:14;;;;;;;5.43;1.83;;;;;;;;;;4989737;28;20413;-68
2023/01/02 02:10:40;;;;;;;3.90;1.45;;;;;;;;;;4985075;28;20085;-68
2023/01/02 02:13:05;;;;;;;7.82;2.20;;;;;;;;;;4996975;28;20523;-68
2023/01/02 02:15:44;;;;;;;9.17;1.73;;;;;;;;;;4993933;28;20038;-68
2023/01/02 02:18:21;;;;;;;11.32;2.13;;;;;;;;;;4991142;28;20754;-68
2023/01/02 02:20:49;;;;;;;5.93;1.75;;;;;;;;;;4992335;28;20026;-68
2023/01/02 02:23:32;;;;;;;8.50;2.25;;;;;;;;;;4996011;28;20025;-68
2023/01/02 02:26:00;;;;;;;6.30;1.98;;;;;;;;;;4996327;28;20010;-68
2023/01/02 02:28:37;;;;;;;20.77;3.72;;;;;;;;;;4995539;28;20057;-68
2023/01/02 02:31:02;;;;;;;10.35;1.58;;;;;;;;;;4986445;28;20455;-68
2023/01/02 02:33:35;;;;;;;7.70;2.73;;;;;;;;;;4984896;28;20029;-68
2023/01/02 02:36:12;;;;;;;9.68;2.33;;;;;;;;;;4985857;28;20407;-68
2023/01/02 02:38:57;;;;;;;4.85;1.98;;;;;;;;;;4995979;28;20623;-68
2023/01/02 02:41:28;;;;;;;5.10;1.65;;;;;;;;;;4992764;28;20022;-68
2023/01/02 02:44:12;;;;;;;8.07;2.22;;;;;;;;;;4996471;28;20599;-68
2023/01/02 02:46:46;;;;;;;15.70;1.58;;;;;;;;;;4996458;28;20501;-68
2023/01/02 02:49:27;;;;;;;19.27;3.00;;;;;;;;;;4993833;28;20026;-68
2023/01/02 02:52:01;;;;;;;4.30;1.42;;;;;;;;;;4993776;28;20082;-67
2023/01/02 02:54:32;;;;;;;9.13;2.53;;;;;;;;;;4994096;28;20022;-67
2023/01/02 02:56:58;;;;;;;9.23;1.30;;;;;;;;;;4994575;28;20030;-68
2023/01/02 02:59:23;;;;;;;11.80;2.85;;;;;;;;;;5002857;28;20192;-68
2023/01/02 03:01:49;;;;;;;2.45;1.08;;;;;;;;;;4990227;28;20565;-68
2023/01/02 03:04:16;;;;;;;13.52;1.90;;;;;;;;;;4992213;28;20018;-67
2023/01/02 03:06:50;;;;;;;8.70;1.80;;;;;;;;;;4991921;28;20070;-68
2023/01/02 03:09:26;;;;;;;13.90;1.50;;;;;;;;;;4994322;28;20042;-68
2023/01/02 03:11:55;;;;;;;6.80;2.03;;;;;;;;;;4990322;28;20029;-68
2023/01/02 03:14:24;;;;;;;11.45;2.00;;;;;;;;;;4987755;28;20435;-67
2023/01/02 03:16:52;;;;;;;8.98;2.20;;;;;;;;;;4992645;28;20034;-68
2023/01/02 03:19:38;;;;;;;7.47;1.42;;;;;;;;;;4992129;28;20610;-68
2023/01/02 03:22:15;;;;;;;9.95;2.45;;;;;;;;;;4977553;28;20042;-67
2023/01/02 03:24:41;;;;;;;9.85;2.05;;;;;;;;;;4989860;28;20506;-68
2023/01/02 03:27:12;;;;;;;2.80;1.65;;;;;;;;;;4995000;28;20057;-68
2023/01/02 03:29:40;;;;;;;10.82;2.47;;;;;;;;;;4995584;28;20018;-68
2023/01/02 03:32:09;;;;;;;3.50;1.30;;;;;;;;;;5000934;28;20041;-68
2023/01/02 03:34:36;;;;;;;12.63;2.25;;;;;;;;;;4992504;28;20029;-67
2023/01/02 03:37:09;;;;;;;6.68;1.85;;;;;;;;;;4992832;28;20227;-67
2023/01/02 03:39:38;;;;;;;12.68;2.22;;;;;;;;;;4982290;28;20029;-68
2023/01/02 03:42:07;;;;;;;15.25;2.55;;;;;;;;;;4996057;28;20029;-67
2023/01/02 03:44:44;;;;;;;2.33;0.73;;;;;;;;;;4994533;28;20078;-68
2023/01/02 03:47:28;;;;;;;12.20;2.72;;;;;;;;;;4986215;28;20060;-67
2023/01/02 03:49:54;;;;;;;13.88;1.80;;;;;;;;;;4984735;28;20018;-67
2023/01/02 03:52:20;;;;;;;11.10;2.75;;;;;;;;;;4985145;28;20033;-68
2023/01/02 03:54:46;;;;;;;5.70;1.27;;;;;;;;;;4984680;28;20034;-67
2023/01/02 03:57:20;;;;;;;12.05;2.15;;;;;;;;;;4988555;28;20033;-67
2023/01/02 04:00:00;;;;;;;9.68;2.13;;;;;;;;;;4995620;28;20038;-67
2023/01/02 04:02:35;;;;;;;13.65;3.60;;;;;;;;;;4990677;28;20029;-68
2023/01/02 04:05:06;;;;;;;13.13;2.65;;;;;;;;;;4990724;28;20042;-67
2023/01/02 04:07:31;;;;;;;8.20;2.30;;;;;;;;;;4991067;28;20097;-68
2023/01/02 04:09:58;;;;;;;12.35;2.80;;;;;;;;;;4986049;28;20029;-68
2023/01/02 04:12:23;;;;;;;12.35;2.25;;;;;;;;;;4993041;28;20046;-67
2023/01/02 04:14:56;;;;;;;4.88;1.20;;;;;;;;;;4997032;28;20101;-68
2023/01/02 04:17:23;;;;;;;13.05;2.00;;;;;;;;;;4988172;28;20101;-67
2023/01/02 04:19:50;;;;;;;7.00;1.40;;;;;;;;;;4991030;28;20018;-68
2023/01/02 04:22:18;;;;;;;12.93;2.03;;;;;;;;;;4989165;28;20030;-67
2023/01/02 04:24:47;;;;;;;11.02;2.10;;;;;;;;;;4981372;28;20088;-67
2023/01/02 04:27:13;;;;;;;5.95;2.22;;;;;;;;;;4988665;28;20037;-67
2023/01/02 04:29:39;;;;;;;10.40;1.98;;;;;;;;;;4985086;28;20029;-68
2023/01/02 04:32:14;;;;;;;9.15;3.25;;;;;;;;;;4995751;28;20383;-67
2023/01/02 04:34:39;;;;;;;13.00;1.67;;;;;;;;;;4982765;28;20101;-67
2023/01/02 04:37:04;;;;;;;9.93;2.25;;;;;;;;;;4991950;28;20525;-68
2023/01/02 04:39:30;;;;;;;8.10;1.83;;;;;;;;;;4992663;28;20097;-68
2023/01/02 04:41:55;;;;;;;12.95;1.58;;;;;;;;;;4990168;28;20293;-68
2023/01/02 04:44:20;;;;;;;9.15;2.85;;;;;;;;;;4993013;28;20026;-68
2023/01/02 04:46:45;;;;;;;8.90;2.50;;;;;;;;;;4989777;28;20069;-68
2023/01/02 04:49:10;;;;;;;10.67;3.30;;;;;;;;;;4989214;28;20275;-68
2023/01/02 04:51:36;;;;;;;11.70;2.07;;;;;;;;;;4994481;28;20795;-68
2023/01/02 04:54:01;;;;;;;10.40;1.23;;;;;;;;;;4986410;28;20289;-68
2023/01/02 04:56:26;;;;;;;4.53;1.80;;;;;;;;;;4992165;28;20026;-68
2023/01/02 04:58:51;;;;;;;7.20;2.40;;;;;;;;;;4990311;28;20335;-68
2023/01/02 05:01:18;;;;;;;8.27;2.30;;;;;;;;;;4989944;28;20857;-69
2023/01/02 05:03:45;;;;;;;4.10;1.88;;;;;;;;;;4987739;28;20630;-68
2023/01/02 05:06:10;;;;;;;6.22;1.95;;;;;;;;;;4985199;28;20015;-69
2023/01/02 05:08:36;;;;;;;4.25;1.75;;;;;;;;;;4992539;28;20025;-68
2023/01/02 05:11:05;;;;;;;7.95;1.83;;;;;;;;;;4988439;28;20550;-68
2023/01/02 05:13:30;;;;;;;8.63;1.98;;;;;;;;;;4986297;28;20022;-69
2023/01/02 05:15:55;;;;;;;15.20;2.70;;;;;;;;;;4993695;28;20033;-69
2023/01/02 05:18:21;;;;;;;17.25;2.13;;;;;;;;;;4986159;28;20627;-68
2023/01/02 05:20:46;;;;;;;12.45;2.10;;;;;;;;;;4997469;28;20052;-68
2023/01/02 05:25:55;;;;;;;13.00;2.35;;;;;;;;;;4992730;28;20952;-68
2023/01/02 05:28:20;;;;;;;14.37;2.53;;;;;;;;;;4997612;28;20031;-69
2023/01/02 05:30:45;;;;;;;14.23;3.40;;;;;;;;;;4991293;28;20297;-68
2023/01/02 05:33:10;;;;;;;11.38;2.65;;;;;;;;;;4991322;28;20283;-69
2023/01/02 05:35:36;;;;;;;6.33;2.47;;;;;;;;;;4987820;28;20021;-69
2023/01/02 05:38:01;;;;;;;8.83;1.83;;;;;;;;;;4989171;28;20285;-69
2023/01/02 05:40:26;;;;;;;1.73;0.80;;;;;;;;;;4989096;28;20316;-69
2023/01/02 05:42:51;;;;;;;16.93;1.60;;;;;;;;;;4994279;28;20302;-68
2023/01/02 05:45:16;;;;;;;6.53;1.67;;;;;;;;;;4990782;28;20253;-69
2023/01/02 05:47:41;;;;;;;12.55;4.07;;;;;;;;;;4991385;28;20845;-69
2023/01/02 05:50:07;;;;;;;33.50;4.73;;;;;;;;;;4995411;28;20028;-69
2023/01/02 05:52:32;;;;;;;6.00;1.60;;;;;;;;;;4993803;28;20813;-68
2023/01/02 05:54:57;;;;;;;9.13;2.47;;;;;;;;;;4996609;28;20026;-68
2023/01/02 05:57:22;;;;;;;10.97;3.17;;;;;;;;;;4998186;28;20269;-69
2023/01/02 05:59:48;;;;;;;5.47;2.67;;;;;;;;;;4993658;28;20339;-69
2023/01/02 06:02:13;;;;;;;3.35;2.30;;;;;;;;;;4992265;28;20281;-69
2023/01/02 06:04:38;;;;;;;12.37;2.37;;;;;;;;;;4992375;28;20061;-68
2023/01/02 06:07:03;;;;;;;10.45;2.60;;;;;;;;;;4991228;28;20274;-69
2023/01/02 06:09:28;;;;;;;5.73;1.97;;;;;;;;;;4973138;28;20053;-68
2023/01/02 06:11:54;;;;;;;19.07;3.83;;;;;;;;;;4991045;28;20281;-68
2023/01/02 06:14:21;;;;;;;12.80;1.98;;;;;;;;;;4990201;28;20277;-68
2023/01/02 06:16:46;;;;;;;13.02;1.67;;;;;;;;;;4996351;28;20077;-69
2023/01/02 06:19:11;;;;;;;12.75;2.10;;;;;;;;;;4999107;28;20478;-68
2023/01/02 06:21:36;;;;;;;7.00;2.83;;;;;;;;;;4989196;28;20038;-69
2023/01/02 06:24:01;;;;;;;5.40;1.77;;;;;;;;;;4996112;28;20301;-69
2023/01/02 06:26:27;;;;;;;10.43;2.70;;;;;;;;;;4995787;28;20312;-68
2023/01/02 06:28:53;;;;;;;17.08;2.75;;;;;;;;;;4995193;28;20669;-68
2023/01/02 06:31:19;;;;;;;13.48;1.90;;;;;;;;;;4989269;28;20026;-69
2023/01/02 06:33:45;;;;;;;12.98;3.08;;;;;;;;;;4996953;28;20023;-69
2023/01/02 06:36:11;;;;;;;11.73;2.30;;;;;;;;;;4989332;28;20041;-69
2023/01/02 06:38:37;;;;;;;12.75;2.63;;;;;;;;;;4991604;28;20018;-69
2023/01/02 06:41:02;;;;;;;15.57;1.67;;;;;;;;;;4996923;28;20011;-69
2023/01/02 06:43:28;;;;;;;9.45;2.53;;;;;;;;;;4995825;28;20044;-69
2023/01/02 06:45:56;;;;;;;8.43;2.67;;;;;;;;;;4991160;28;20025;-69
2023/01/02 06:48:21;;;;;;;9.98;2.35;;;;;;;;;;4998820;28;20491;-69
2023/01/02 06:50:46;;;;;;;15.90;2.03;;;;;;;;;;4993970;28;20105;-69
2023/01/02 06:53:12;;;;;;;3.63;1.40;;;;;;;;;;4984529;28;20270;-69
2023/01/02 06:55:37;;;;;;;13.40;2.60;;;;;;;;;;4988553;28;20116;-69
2023/01/02 06:58:02;;;;;;;6.35;1.63;;;;;;;;;;4996562;28;20514;-69
2023/01/02 07:00:27;;;;;;;11.30;2.45;;;;;;;;;;4988023;28;20022;-69
2023/01/02 07:02:53;;;;;;;13.17;2.00;;;;;;;;;;4994465;28;20034;-69
2023/01/02 07:05:18;;;;;;;4.65;1.38;;;;;;;;;;4991163;28;20805;-69
2023/01/02 07:07:43;;;;;;;7.80;1.97;;;;;;;;;;4988180;28;20109;-69
2023/01/02 07:10:08;;;;;;;15.30;2.37;;;;;;;;;;4988561;28;20794;-69
2023/01/02 07:12:35;;;;;;;11.80;1.83;;;;;;;;;;4990241;28;20335;-69
2023/01/02 07:15:00;;;;;;;13.20;2.97;;;;;;;;;;4989363;28;20261;-69
2023/01/02 07:17:25;;;;;;;20.50;2.90;;;;;;;;;;4992255;28;20036;-69
2023/01/02 07:19:50;;;;;;;16.43;3.20;;;;;;;;;;4985837;28;20278;-69
2023/01/02 07:22:16;;;;;;;14.03;2.67;;;;;;;;;;4996274;28;20989;-70
2023/01/02 07:24:41;;;;;;;11.37;2.30;;;;;;;;;;4993425;28;20284;-69
2023/01/02 07:27:06;;;;;;;14.27;2.60;;;;;;;;;;4994949;28;20270;-69
2023/01/02 07:29:31;;;;;;;17.67;2.73;;;;;;;;;;4984968;28;20320;-69
2023/01/02 07:31:56;;;;;;;9.70;2.80;;;;;;;;;;4992757;28;20287;-69
2023/01/02 07:34:21;;;;;;;12.57;2.33;;;;;;;;;;4990585;28;20300;-69
2023/01/02 07:36:47;;;;;;;14.70;2.92;;;;;;;;;;4988195;28;20288;-69
2023/01/02 07:39:12;;;;;;;22.67;3.00;;;;;;;;;;4991713;28;20041;-69
2023/01/02 07:41:37;;;;;;;7.90;2.60;;;;;;;;;;4994085;28;22165;-69
2023/01/02 07:44:02;;;;;;;12.25;3.47;;;;;;;;;;4988676;28;20018;-69
2023/01/02 07:46:27;;;;;;;15.25;3.67;;;;;;;;;;4989684;28;20025;-69
2023/01/02 07:48:53;;;;;;;9.87;3.13;;;;;;;;;;4994535;28;20018;-69
2023/01/02 07:51:18;;;;;;;13.80;2.83;;;;;;;;;;4989266;28;20332;-69
2023/01/02 07:53:43;;;;;;;15.60;2.60;;;;;;;;;;4993288;28;20302;-69
2023/01/02 07:56:08;;;;;;;13.40;2.87;;;;;;;;;;4996672;28;20769;-69
2023/01/02 07:58:34;;;;;;;13.00;4.47;;;;;;;;;;4997586;28;20337;-70
2023/01/02 08:01:04;;;;;;;4.18;1.90;;;;;;;;;;4995909;28;20031;-70
2023/01/02 08:03:29;;;;;;;22.13;3.63;;;;;;;;;;4996791;28;20391;-70
2023/01/02 08:06:00;;;;;;;19.15;3.20;;;;;;;;;;4989058;28;20035;-69
2023/01/02 08:08:26;;;;;;;19.77;3.20;;;;;;;;;;4988294;28;20073;-70
2023/01/02 08:10:51;;;;;;;13.00;2.90;;;;;;;;;;4985170;28;20054;-70
2023/01/02 08:13:16;;;;;;;10.37;2.80;;;;;;;;;;4988893;28;20289;-70
2023/01/02 08:15:41;;;;;;;10.07;3.00;;;;;;;;;;4994950;28;20285;-70
2023/01/02 08:18:06;;;;;;;11.50;3.33;;;;;;;;;;4996530;28;21021;-70
2023/01/02 08:20:31;;;;;;;16.33;3.60;;;;;;;;;;4993982;28;20274;-70
2023/01/02 08:22:57;;;;;;;12.13;3.47;;;;;;;;;;4997011;28;20284;-70
2023/01/02 08:25:22;;;;;;;22.60;4.07;;;;;;;;;;4995307;28;20660;-71
2023/01/02 08:27:47;;;;;;;12.83;3.33;;;;;;;;;;4994486;28;20273;-70
2023/01/02 08:30:12;;;;;;;15.60;4.67;;;;;;;;;;4996066;28;20264;-70
2023/01/02 08:32:38;;;;;;;14.65;3.28;;;;;;;;;;4996011;28;20790;-70
2023/01/02 08:35:03;;;;;;;15.73;4.18;;;;;;;;;;4989426;28;20042;-71
2023/01/02 08:37:29;;;;;;;17.67;4.40;;;;;;;;;;4984832;28;20533;-70
2023/01/02 08:39:54;;;;;;;17.85;4.60;;;;;;;;;;4990968;28;20026;-70
2023/01/02 08:42:19;;;;;;;17.00;4.57;;;;;;;;;;4982854;28;20476;-72
2023/01/02 08:44:44;;;;;;;7.30;3.00;;;;;;;;;;4988327;28;20280;-71
2023/01/02 08:47:09;;;;;;;14.25;3.28;;;;;;;;;;4993124;28;20270;-71
2023/01/02 08:49:35;;;;;;;13.70;3.40;;;;;;;;;;4988076;28;20080;-70
2023/01/02 08:52:00;;;;;;;19.30;3.37;;;;;;;;;;4990367;28;20031;-70
2023/01/02 08:54:25;;;;;;;11.77;2.97;;;;;;;;;;4983406;28;21108;-71
2023/01/02 08:56:50;;;;;;;8.97;2.70;;;;;;;;;;4986729;28;20297;-71
2023/01/02 08:59:15;;;;;;;8.77;3.45;;;;;;;;;;4993205;28;20269;-71
2023/01/02 09:01:41;;;;;;;7.43;3.07;;;;;;;;;;4988709;28;20030;-71
2023/01/02 09:04:07;;;;;;;11.38;2.50;;;;;;;;;;4997656;28;20356;-71
2023/01/02 09:06:33;;;;;;;11.43;3.03;;;;;;;;;;4994223;28;20036;-71
2023/01/02 09:08:59;;;;;;;16.05;3.95;;;;;;;;;;4989721;28;20102;-71
2023/01/02 09:11:30;;;;;;;15.38;3.55;;;;;;;;;;4976257;28;20116;-71
2023/01/02 09:13:56;;;;;;;12.32;3.22;;;;;;;;;;4996144;28;20026;-73
2023/01/02 09:16:21;;;;;;;12.23;2.58;;;;;;;;;;4998393;28;20426;-71
2023/01/02 09:18:47;;;;;;;9.38;3.50;;;;;;;;;;4994001;28;20021;-71
2023/01/02 09:21:12;;;;;;;7.85;2.72;;;;;;;;;;4988833;28;20077;-72
2023/01/02 09:23:37;;;;;;;15.87;4.20;;;;;;;;;;4993370;28;20465;-71
2023/01/02 09:26:03;;;;;;;10.40;3.10;;;;;;;;;;4994514;28;20276;-72
2023/01/02 09:28:30;;;;;;;6.53;2.70;;;;;;;;;;4993723;28;20761;-71
2023/01/02 09:30:55;;;;;;;15.75;3.25;;;;;;;;;;4992506;28;20023;-72
2023/01/02 09:33:21;;;;;;;13.77;3.13;;;;;;;;;;4996044;28;20108;-72
2023/01/02 09:35:46;;;;;;;6.80;2.20;;;;;;;;;;4990353;28;20277;-71
2023/01/02 09:38:11;;;;;;;7.50;2.30;;;;;;;;;;4994751;28;20451;-72
2023/01/02 09:40:41;;;;;;;10.50;2.10;;;;;;;;;;4990185;28;20025;-71
2023/01/02 09:43:08;;;;;;;13.70;2.13;;;;;;;;;;4995233;28;20065;-71
2023/01/02 09:45:33;;;;;;;7.35;1.63;;;;;;;;;;4993864;28;20431;-71
2023/01/02 09:47:59;;;;;;;6.10;2.10;;;;;;;;;;4990983;28;20014;-72
2023/01/02 09:50:26;;;;;;;6.93;2.10;;;;;;;;;;4995206;28;20400;-73
2023/01/02 09:52:56;;;;;;;4.57;1.58;;;;;;;;;;4990238;28;20022;-71
2023/01/02 09:55:41;;;;;;;8.82;1.90;;;;;;;;;;4991916;28;20483;-71
2023/01/02 09:58:09;;;;;;;6.28;1.17;;;;;;;;;;4993870;28;20646;-71
2023/01/02 10:00:37;;;;;;;2.67;1.17;;;;;;;;;;4993043;28;20048;-71
2023/01/02 10:03:17;;;;;;;12.98;1.35;;;;;;;;;;4989368;28;20019;-71
2023/01/02 10:05:43;;;;;;;;;;;;;;;;;;4988947;28;20030;-72
2023/01/02 10:08:26;;;;;;;4.55;1.85;;;;;;;;;;4990988;28;19914;-71
2023/01/02 10:10:56;;;;;;;3.10;1.42;;;;;;;;;;4990795;28;20025;-71
2023/01/02 10:13:40;;;;;;;4.47;2.20;;;;;;;;;;4997303;28;20478;-72
2023/01/02 10:16:06;;;;;;;4.10;1.40;;;;;;;;;;4988298;28;20038;-74
2023/01/02 10:18:36;;;;;;;4.63;1.40;;;;;;;;;;4991352;28;20518;-72
2023/01/02 10:21:07;;;;;;;4.03;1.65;;;;;;;;;;4990002;28;20030;-72
2023/01/02 10:23:35;;;;;;;2.80;1.20;;;;;;;;;;4988668;28;20541;-71
2023/01/02 10:26:04;;;;;;;3.90;1.85;;;;;;;;;;4989202;28;20024;-71
2023/01/02 10:28:42;;;;;;;5.73;1.27;;;;;;;;;;4991460;28;20022;-71
2023/01/02 10:31:13;;;;;;;7.32;1.30;;;;;;;;;;4996653;28;20029;-71
2023/01/02 10:33:43;;;;;;;2.47;1.10;;;;;;;;;;4999929;28;20487;-71
2023/01/02 10:36:17;;;;;;;5.22;1.25;;;;;;;;;;4997279;28;20129;-72
2023/01/02 10:38:42;;;;;;;2.78;1.23;;;;;;;;;;4997671;28;20506;-71
2023/01/02 10:41:07;;;;;;;8.13;1.60;;;;;;;;;;5001035;28;20026;-71
2023/01/02 10:43:33;;;;;;;3.33;1.50;;;;;;;;;;5000456;28;20034;-71
2023/01/02 10:45:59;;;;;;;2.85;1.58;;;;;;;;;;4990818;28;20022;-72
2023/01/02 10:48:25;;;;;;;5.57;1.67;;;;;;;;;;4995470;28;20030;-72
2023/01/02 10:50:53;;;;;;;4.00;2.33;;;;;;;;;;4988193;28;20147;-71
2023/01/02 10:53:21;;;;;;;10.18;2.55;;;;;;;;;;5000660;28;20030;-71
2023/01/02 10:55:47;;;;;;;5.50;2.13;;;;;;;;;;4989063;28;20034;-71
2023/01/02 10:58:18;;;;;;;12.35;3.60;;;;;;;;;;4991830;28;20023;-71
2023/01/02 11:00:44;;;;;;;3.60;1.73;;;;;;;;;;4988269;28;20109;-71
2023/01/02 11:03:14;;;;;;;3.55;1.90;;;;;;;;;;4996867;28;20112;-71
2023/01/02 11:05:46;;;;;;;4.93;1.77;;;;;;;;;;4992470;28;20058;-70
2023/01/02 11:08:13;;;;;;;6.50;1.90;;;;;;;;;;4993664;28;20508;-72
2023/01/02 11:10:38;;;;;;;2.60;1.75;;;;;;;;;;4997566;28;20352;-71
2023/01/02 11:13:07;;;;;;;4.20;1.90;;;;;;;;;;4998036;28;20038;-70
2023/01/02 11:15:36;;;;;;;4.45;1.55;;;;;;;;;;4990028;28;20401;-71
2023/01/02 11:18:02;;;;;;;3.03;1.65;;;;;;;;;;4992067;28;20019;-71
2023/01/02 11:20:29;;;;;;;3.30;1.65;;;;;;;;;;4997883;28;20034;-71
2023/01/02 11:22:57;;;;;;;4.55;1.80;;;;;;;;;;4996478;28;20034;-71
2023/01/02 11:25:24;;;;;;;4.90;2.00;;;;;;;;;;4989983;28;20137;-72
2023/01/02 11:27:50;;;;;;;2.65;1.50;;;;;;;;;;4994517;28;20031;-72
2023/01/02 11:30:26;;;;;;;5.18;3.05;;;;;;;;;;4996373;28;20022;-71
2023/01/02 11:33:18;;;;;;;6.28;2.15;;;;;;;;;;4995308;28;20027;-71
2023/01/02 11:35:51;;;;;;;6.13;2.05;;;;;;;;;;4992786;28;20048;-71
2023/01/02 11:38:21;;;;;;;5.10;2.15;;;;;;;;;;4987727;28;20038;-71
2023/01/02 11:40:54;;;;;;;6.57;2.85;;;;;;;;;;4995012;28;20036;-71
2023/01/02 11:46:09;;;;;;;4.57;2.28;;;;;;;;;;4995966;28;20221;-71
2023/01/02 11:48:35;;;;;;;5.00;2.63;;;;;;;;;;4997829;28;20113;-71
2023/01/02 11:51:01;;;;;;;6.07;2.30;;;;;;;;;;4992335;28;20034;-71
2023/01/02 11:53:28;;;;;;;4.43;2.75;;;;;;;;;;4979686;28;20417;-71
2023/01/02 11:55:53;;;;;;;8.32;3.15;;;;;;;;;;4992293;28;20026;-71
2023/01/02 11:58:25;;;;;;;4.05;2.55;;;;;;;;;;4997281;28;20497;-71
2023/01/02 12:00:52;;;;;;;5.35;3.30;;;;;;;;;;4984299;28;20769;-72
2023/01/02 12:03:25;;;;;;;5.78;3.40;;;;;;;;;;4994353;28;20030;-73
2023/01/02 12:06:08;;;;;;;9.13;4.03;;;;;;;;;;4988470;28;20368;-72
2023/01/02 12:08:39;;;;;;;5.38;2.90;;;;;;;;;;4990076;28;20026;-71
2023/01/02 12:11:22;;;;;;;7.40;2.90;;;;;;;;;;4988863;28;20025;-71
2023/01/02 12:13:52;;;;;;;5.72;2.88;;;;;;;;;;4987611;28;20033;-72
2023/01/02 12:16:25;;;;;;;6.78;2.72;;;;;;;;;;4989476;28;20522;-71
2023/01/02 12:19:02;;;;;;;9.40;2.70;;;;;;;;;;4994967;28;20026;-71
2023/01/02 12:21:38;;;;;;;5.25;2.78;;;;;;;;;;4992397;28;20022;-71
2023/01/02 12:24:14;;;;;;;5.22;2.55;;;;;;;;;;4992096;28;20097;-71
2023/01/02 12:26:49;;;;;;;5.00;2.60;;;;;;;;;;4990285;28;20025;-72
2023/01/02 12:29:46;;;;;;;6.05;2.95;;;;;;;;;;4984675;28;20023;-72
2023/01/02 12:32:17;;;;;;;5.85;3.08;;;;;;;;;;4931839;28;20038;-71
2023/01/02 12:34:48;;;;;;;10.02;3.58;;;;;;;;;;4992499;28;20014;-72
2023/01/02 12:37:37;;;;;;;7.55;3.10;;;;;;;;;;4995685;28;20022;-71
2023/01/02 12:40:20;;;;;;;8.90;3.42;;;;;;;;;;4993036;28;20026;-72
2023/01/02 12:42:51;;;;;;;7.47;4.13;;;;;;;;;;4985754;28;20530;-71
2023/01/02 12:45:35;;;;;;;10.52;4.40;;;;;;;;;;4991529;28;20021;-71
2023/01/02 12:48:18;;;;;;;11.45;4.18;;;;;;;;;;4997043;28;20018;-71
2023/01/02 12:50:57;;;;;;;8.52;4.78;;;;;;;;;;4988470;28;20022;-71
2023/01/02 12:53:40;;;;;;;8.73;4.43;;;;;;;;;;4999669;28;20064;-71
2023/01/02 12:56:18;;;;;;;10.45;4.38;;;;;;;;;;4991885;28;20056;-71
2023/01/02 12:58:52;;;;;;;8.65;4.30;;;;;;;;;;4987241;28;20018;-71
2023/01/02 13:01:31;;;;;;;5.65;3.00;;;;;;;;;;4994641;28;20026;-71
2023/01/02 13:04:11;;;;;;;8.90;2.40;;;;;;;;;;4990033;28;20673;-70
2023/01/02 13:06:51;;;;;;;7.22;3.08;;;;;;;;;;4993224;28;20506;-70
2023/01/02 13:09:24;;;;;;;8.55;3.42;;;;;;;;;;4988100;28;20135;-70
2023/01/02 13:11:55;;;;;;;6.72;3.22;;;;;;;;;;4997134;28;20021;-70
2023/01/02 13:14:22;;;;;;;6.95;3.47;;;;;;;;;;4997380;28;20030;-70
2023/01/02 13:17:06;;;;;;;4.80;3.10;;;;;;;;;;4991209;28;20085;-70
2023/01/02 13:19:35;;;;;;;5.45;2.63;;;;;;;;;;4992447;28;20045;-70
2023/01/02 13:22:26;;;;;;;9.27;4.00;;;;;;;;;;4995571;28;20018;-70
2023/01/02 13:24:53;;;;;;;10.60;5.18;;;;;;;;;;4992358;28;20029;-70
2023/01/02 13:27:18;;;;;;;9.82;4.95;;;;;;;;;;4991076;28;20018;-71
2023/01/02 13:29:44;;;;;;;10.45;5.60;;;;;;;;;;4994260;28;20045;-70
2023/01/02 13:32:10;;;;;;;9.98;4.95;;;;;;;;;;4974296;28;20026;-70
2023/01/02 13:34:37;;;;;;;8.55;4.50;;;;;;;;;;4989191;28;20411;-71
2023/01/02 13:37:07;;;;;;;10.00;4.95;;;;;;;;;;4997802;28;20018;-70
2023/01/02 13:39:38;;;;;;;10.43;5.07;;;;;;;;;;4989614;28;20031;-70
2023/01/02 13:44:50;;;;;;;11.52;6.10;;;;;;;;;;4991940;28;20140;-70
2023/01/02 13:47:19;;;;;;;11.15;6.47;;;;;;;;;;4994244;28;20091;-70
2023/01/02 13:49:47;;;;;;;12.10;6.50;;;;;;;;;;4990196;28;20030;-70
2023/01/02 13:52:14;;;;;;;17.30;7.45;;;;;;;;;;4993985;28;20475;-70
2023/01/02 13:54:41;;;;;;;18.67;6.75;;;;;;;;;;4988090;28;20026;-70
2023/01/02 13:57:13;;;;;;;20.08;7.43;;;;;;;;;;4993661;28;20022;-71
2023/01/02 13:59:49;;;;;;;15.73;6.28;;;;;;;;;;4995400;28;20110;-70
2023/01/02 14:02:16;;;;;;;12.55;6.10;;;;;;;;;;4994899;28;20022;-70
2023/01/02 14:04:42;;;;;;;15.07;6.60;;;;;;;;;;4991124;28;20026;-70
2023/01/02 14:07:26;;;;;;;10.88;5.63;;;;;;;;;;4994432;28;20014;-70
2023/01/02 14:10:21;;;;;;;19.50;6.82;;;;;;;;;;4996111;28;20651;-70
2023/01/02 14:12:51;;;;;;;20.00;7.55;;;;;;;;;;4976672;28;20120;-71
2023/01/02 14:15:19;;;;;;;15.57;7.30;;;;;;;;;;4993875;28;20476;-70
2023/01/02 14:18:03;;;;;;;16.50;6.53;;;;;;;;;;4996891;28;20029;-70
2023/01/02 14:20:31;;;;;;;15.73;6.93;;;;;;;;;;4995679;28;20045;-70
2023/01/02 14:22:59;;;;;;;16.98;6.68;;;;;;;;;;4998791;28;20653;-70
2023/01/02 14:25:24;;;;;;;15.23;6.75;;;;;;;;;;5001292;28;20073;-70
2023/01/02 14:28:10;;;;;;;6.90;3.35;;;;;;;;;;4998711;28;20026;-70
2023/01/02 14:30:36;;;;;;;4.70;2.25;;;;;;;;;;4994352;28;20053;-71
2023/01/02 14:33:02;;;;;;;3.05;1.83;;;;;;;;;;5004446;28;20057;-70
2023/01/02 14:35:30;;;;;;;3.28;1.48;;;;;;;;;;4997254;28;20116;-70
2023/01/02 14:38:05;;;;;;;5.13;1.98;;;;;;;;;;5001893;28;20086;-70
2023/01/02 14:40:41;;;;;;;5.35;1.73;;;;;;;;;;4997139;28;20030;-70
2023/01/02 14:45:52;;;;;;;4.00;1.90;;;;;;;;;;5000629;28;20049;-70
2023/01/02 14:48:21;;;;;;;4.13;1.60;;;;;;;;;;4995900;28;20022;-70
2023/01/02 14:50:47;;;;;;;3.47;2.23;;;;;;;;;;4999774;28;20041;-70
2023/01/02 14:53:29;;;;;;;5.25;2.80;;;;;;;;;;4989854;28;20022;-70
2023/01/02 14:55:57;;;;;;;3.97;3.00;;;;;;;;;;4989171;28;20058;-70
2023/01/02 14:58:28;;;;;;;6.00;2.85;;;;;;;;;;4991829;28;20468;-70